sensor_id;sensor_type;location;lat;lon;timestamp;temperature;humidity
28823;DHT22;15961;54.678;9.110;2022-11-15T00:00:26;4.70;99.90
28823;DHT22;15961;54.678;9.110;2022-11-15T00:02:52;4.70;99.90
28823;DHT22;15961;54.678;9.110;2022-11-15T00:05:18;4.70;99.90
28823;DHT22;15961;54.678;9.110;2022-11-15T00:07:43;4.70;99.90
28823;DHT22;15961;54.678;9.110;2022-11-15T00:10:09;4.70;99.90
28823;DHT22;15961;54.678;9.110;2022-11-15T00:12:35;4.70;99.90
28823;DHT22;15961;54.678;9.110;2022-11-15T00:15:00;4.60;99.90
28823;DHT22;15961;54.678;9.110;2022-11-15T00:17:26;4.50;99.90
28823;DHT22;15961;54.678;9.110;2022-11-15T00:19:52;4.50;99.90
28823;DHT22;15961;54.678;9.110;2022-11-15T00:22:17;4.40;99.90
28823;DHT22;15961;54.678;9.110;2022-11-15T00:24:43;4.40;99.90
28823;DHT22;15961;54.678;9.110;2022-11-15T00:27:08;4.30;99.90
28823;DHT22;15961;54.678;9.110;2022-11-15T00:29:34;4.30;99.90
28823;DHT22;15961;54.678;9.110;2022-11-15T00:31:59;4.40;99.90
28823;DHT22;15961;54.678;9.110;2022-11-15T00:34:25;4.50;99.90
28823;DHT22;15961;54.678;9.110;2022-11-15T00:36:50;4.60;99.90
28823;DHT22;15961;54.678;9.110;2022-11-15T00:39:16;4.70;99.90
28823;DHT22;15961;54.678;9.110;2022-11-15T00:41:41;4.80;99.90
28823;DHT22;15961;54.678;9.110;2022-11-15T00:44:07;4.80;99.90
28823;DHT22;15961;54.678;9.110;2022-11-15T00:46:32;4.80;99.90
28823;DHT22;15961;54.678;9.110;2022-11-15T00:48:58;4.90;99.90
28823;DHT22;15961;54.678;9.110;2022-11-15T00:51:23;4.90;99.90
28823;DHT22;15961;54.678;9.110;2022-11-15T00:53:49;4.80;99.90
28823;DHT22;15961;54.678;9.110;2022-11-15T00:56:14;4.90;99.90
28823;DHT22;15961;54.678;9.110;2022-11-15T00:58:40;5.00;99.90
28823;DHT22;15961;54.678;9.110;2022-11-15T01:01:08;5.10;99.90
28823;DHT22;15961;54.678;9.110;2022-11-15T01:03:34;5.20;99.90
28823;DHT22;15961;54.678;9.110;2022-11-15T01:06:00;5.40;99.90
28823;DHT22;15961;54.678;9.110;2022-11-15T01:08:26;5.40;99.90
28823;DHT22;15961;54.678;9.110;2022-11-15T01:10:51;5.50;99.90
28823;DHT22;15961;54.678;9.110;2022-11-15T01:13:17;5.60;99.90
28823;DHT22;15961;54.678;9.110;2022-11-15T01:15:43;5.70;99.90
28823;DHT22;15961;54.678;9.110;2022-11-15T01:18:11;5.70;99.90
28823;DHT22;15961;54.678;9.110;2022-11-15T01:20:41;5.80;99.90
28823;DHT22;15961;54.678;9.110;2022-11-15T01:23:07;5.90;99.90
28823;DHT22;15961;54.678;9.110;2022-11-15T01:25:32;6.00;99.90
28823;DHT22;15961;54.678;9.110;2022-11-15T01:27:58;6.00;99.90
28823;DHT22;15961;54.678;9.110;2022-11-15T01:30:24;6.10;99.90
28823;DHT22;15961;54.678;9.110;2022-11-15T01:32:49;6.10;99.90
28823;DHT22;15961;54.678;9.110;2022-11-15T01:35:15;6.20;99.90
28823;DHT22;15961;54.678;9.110;2022-11-15T01:37:40;6.20;99.90
28823;DHT22;15961;54.678;9.110;2022-11-15T01:40:06;6.20;99.90
28823;DHT22;15961;54.678;9.110;2022-11-15T01:42:32;6.30;99.90
28823;DHT22;15961;54.678;9.110;2022-11-15T01:44:57;6.30;99.90
28823;DHT22;15961;54.678;9.110;2022-11-15T01:47:33;6.40;99.90
28823;DHT22;15961;54.678;9.110;2022-11-15T01:50:12;6.30;99.90
28823;DHT22;15961;54.678;9.110;2022-11-15T01:52:40;6.40;99.90
28823;DHT22;15961;54.678;9.110;2022-11-15T01:55:09;6.40;99.90
28823;DHT22;15961;54.678;9.110;2022-11-15T01:57:37;6.40;99.90
28823;DHT22;15961;54.678;9.110;2022-11-15T02:00:05;6.40;99.90
28823;DHT22;15961;54.678;9.110;2022-11-15T02:02:32;6.50;99.90
28823;DHT22;15961;54.678;9.110;2022-11-15T02:04:58;6.50;99.90
28823;DHT22;15961;54.678;9.110;2022-11-15T02:07:23;6.50;99.90
28823;DHT22;15961;54.678;9.110;2022-11-15T02:09:50;6.50;99.90
28823;DHT22;15961;54.678;9.110;2022-11-15T02:12:20;6.50;99.90
28823;DHT22;15961;54.678;9.110;2022-11-15T02:14:50;6.50;99.90
28823;DHT22;15961;54.678;9.110;2022-11-15T02:17:29;6.50;99.90
28823;DHT22;15961;54.678;9.110;2022-11-15T02:34:49;6.60;99.90
28823;DHT22;15961;54.678;9.110;2022-11-15T02:43:08;6.60;99.90
28823;DHT22;15961;54.678;9.110;2022-11-15T02:46:33;6.70;99.90
28823;DHT22;15961;54.678;9.110;2022-11-15T02:49:19;6.70;99.90
28823;DHT22;15961;54.678;9.110;2022-11-15T02:51:47;6.70;99.90
28823;DHT22;15961;54.678;9.110;2022-11-15T02:54:25;6.70;99.90
28823;DHT22;15961;54.678;9.110;2022-11-15T02:56:58;6.70;99.90
28823;DHT22;15961;54.678;9.110;2022-11-15T03:02:28;6.70;99.90
28823;DHT22;15961;54.678;9.110;2022-11-15T03:05:35;6.70;99.90
28823;DHT22;15961;54.678;9.110;2022-11-15T03:08:10;6.70;99.90
28823;DHT22;15961;54.678;9.110;2022-11-15T03:10:46;6.70;99.90
28823;DHT22;15961;54.678;9.110;2022-11-15T03:13:24;6.70;99.90
28823;DHT22;15961;54.678;9.110;2022-11-15T03:16:03;6.70;99.90
28823;DHT22;15961;54.678;9.110;2022-11-15T03:18:35;6.70;99.90
28823;DHT22;15961;54.678;9.110;2022-11-15T03:21:06;6.70;99.90
28823;DHT22;15961;54.678;9.110;2022-11-15T03:23:34;6.70;99.90
28823;DHT22;15961;54.678;9.110;2022-11-15T03:26:01;6.60;99.90
28823;DHT22;15961;54.678;9.110;2022-11-15T03:28:36;6.60;99.90
28823;DHT22;15961;54.678;9.110;2022-11-15T03:31:03;6.60;99.90
28823;DHT22;15961;54.678;9.110;2022-11-15T03:33:51;6.50;99.90
28823;DHT22;15961;54.678;9.110;2022-11-15T03:36:21;6.40;99.90
28823;DHT22;15961;54.678;9.110;2022-11-15T03:38:48;6.30;99.90
28823;DHT22;15961;54.678;9.110;2022-11-15T03:41:39;6.10;99.90
28823;DHT22;15961;54.678;9.110;2022-11-15T03:44:40;5.90;99.90
28823;DHT22;15961;54.678;9.110;2022-11-15T03:47:14;5.70;99.90
28823;DHT22;15961;54.678;9.110;2022-11-15T03:49:50;5.50;99.90
28823;DHT22;15961;54.678;9.110;2022-11-15T03:52:21;5.40;99.90
28823;DHT22;15961;54.678;9.110;2022-11-15T03:54:55;5.30;99.90
28823;DHT22;15961;54.678;9.110;2022-11-15T03:57:20;5.10;99.90
28823;DHT22;15961;54.678;9.110;2022-11-15T03:59:46;5.00;99.90
28823;DHT22;15961;54.678;9.110;2022-11-15T04:02:12;4.90;99.90
28823;DHT22;15961;54.678;9.110;2022-11-15T04:04:37;4.80;99.90
28823;DHT22;15961;54.678;9.110;2022-11-15T04:07:03;4.70;99.90
28823;DHT22;15961;54.678;9.110;2022-11-15T04:09:29;4.60;99.90
28823;DHT22;15961;54.678;9.110;2022-11-15T04:11:54;4.50;99.90
28823;DHT22;15961;54.678;9.110;2022-11-15T04:14:20;4.40;99.90
28823;DHT22;15961;54.678;9.110;2022-11-15T04:16:45;4.30;99.90
28823;DHT22;15961;54.678;9.110;2022-11-15T04:19:11;4.30;99.90
28823;DHT22;15961;54.678;9.110;2022-11-15T04:21:55;4.30;99.90
28823;DHT22;15961;54.678;9.110;2022-11-15T04:24:39;4.20;99.90
28823;DHT22;15961;54.678;9.110;2022-11-15T04:27:04;4.20;99.90
28823;DHT22;15961;54.678;9.110;2022-11-15T04:29:30;4.10;99.90
28823;DHT22;15961;54.678;9.110;2022-11-15T04:32:03;4.10;99.90
28823;DHT22;15961;54.678;9.110;2022-11-15T04:34:28;4.10;99.90
28823;DHT22;15961;54.678;9.110;2022-11-15T04:36:54;4.10;99.90
28823;DHT22;15961;54.678;9.110;2022-11-15T04:39:42;4.10;99.90
28823;DHT22;15961;54.678;9.110;2022-11-15T04:42:08;4.00;99.90
28823;DHT22;15961;54.678;9.110;2022-11-15T04:44:34;4.00;99.90
28823;DHT22;15961;54.678;9.110;2022-11-15T04:47:00;4.00;99.90
28823;DHT22;15961;54.678;9.110;2022-11-15T04:49:25;4.00;99.90
28823;DHT22;15961;54.678;9.110;2022-11-15T04:51:51;4.00;99.90
28823;DHT22;15961;54.678;9.110;2022-11-15T04:54:16;3.90;99.90
28823;DHT22;15961;54.678;9.110;2022-11-15T04:56:42;4.00;99.90
28823;DHT22;15961;54.678;9.110;2022-11-15T04:59:08;4.00;99.90
28823;DHT22;15961;54.678;9.110;2022-11-15T05:01:33;4.10;99.90
28823;DHT22;15961;54.678;9.110;2022-11-15T05:03:59;4.10;99.90
28823;DHT22;15961;54.678;9.110;2022-11-15T05:06:43;4.10;99.90
28823;DHT22;15961;54.678;9.110;2022-11-15T05:09:08;4.20;99.90
28823;DHT22;15961;54.678;9.110;2022-11-15T05:11:34;4.20;99.90
28823;DHT22;15961;54.678;9.110;2022-11-15T05:13:59;4.20;99.90
28823;DHT22;15961;54.678;9.110;2022-11-15T05:16:25;4.20;99.90
28823;DHT22;15961;54.678;9.110;2022-11-15T05:18:52;4.20;99.90
28823;DHT22;15961;54.678;9.110;2022-11-15T05:21:18;4.10;99.90
28823;DHT22;15961;54.678;9.110;2022-11-15T05:23:43;4.00;99.90
28823;DHT22;15961;54.678;9.110;2022-11-15T05:26:09;3.90;99.90
28823;DHT22;15961;54.678;9.110;2022-11-15T05:28:35;3.90;99.90
28823;DHT22;15961;54.678;9.110;2022-11-15T05:31:06;3.80;99.90
28823;DHT22;15961;54.678;9.110;2022-11-15T05:33:32;3.70;99.90
28823;DHT22;15961;54.678;9.110;2022-11-15T05:38:41;3.60;99.90
28823;DHT22;15961;54.678;9.110;2022-11-15T05:41:07;3.50;99.90
28823;DHT22;15961;54.678;9.110;2022-11-15T05:43:36;3.50;99.90
28823;DHT22;15961;54.678;9.110;2022-11-15T05:46:04;3.50;99.90
28823;DHT22;15961;54.678;9.110;2022-11-15T05:48:30;3.50;99.90
28823;DHT22;15961;54.678;9.110;2022-11-15T05:50:57;3.50;99.90
28823;DHT22;15961;54.678;9.110;2022-11-15T05:53:25;3.50;99.90
28823;DHT22;15961;54.678;9.110;2022-11-15T05:55:51;3.60;99.90
28823;DHT22;15961;54.678;9.110;2022-11-15T05:58:18;3.80;99.90
28823;DHT22;15961;54.678;9.110;2022-11-15T06:00:44;3.90;99.90
28823;DHT22;15961;54.678;9.110;2022-11-15T06:03:10;3.90;99.90
28823;DHT22;15961;54.678;9.110;2022-11-15T06:05:35;3.90;99.90
28823;DHT22;15961;54.678;9.110;2022-11-15T06:08:01;3.90;99.90
28823;DHT22;15961;54.678;9.110;2022-11-15T06:10:27;4.10;99.90
28823;DHT22;15961;54.678;9.110;2022-11-15T06:13:03;4.20;99.90
28823;DHT22;15961;54.678;9.110;2022-11-15T06:15:29;4.30;99.90
28823;DHT22;15961;54.678;9.110;2022-11-15T06:17:58;4.40;99.90
28823;DHT22;15961;54.678;9.110;2022-11-15T06:20:28;4.30;99.90
28823;DHT22;15961;54.678;9.110;2022-11-15T06:23:01;4.40;99.90
28823;DHT22;15961;54.678;9.110;2022-11-15T06:25:28;4.40;99.90
28823;DHT22;15961;54.678;9.110;2022-11-15T06:27:55;4.40;99.90
28823;DHT22;15961;54.678;9.110;2022-11-15T06:30:21;4.60;99.90
28823;DHT22;15961;54.678;9.110;2022-11-15T06:32:46;4.80;99.90
28823;DHT22;15961;54.678;9.110;2022-11-15T06:35:13;4.90;99.90
28823;DHT22;15961;54.678;9.110;2022-11-15T06:37:38;5.00;99.90
28823;DHT22;15961;54.678;9.110;2022-11-15T06:40:04;5.00;99.90
28823;DHT22;15961;54.678;9.110;2022-11-15T06:42:30;5.10;99.90
28823;DHT22;15961;54.678;9.110;2022-11-15T06:44:55;5.20;99.90
28823;DHT22;15961;54.678;9.110;2022-11-15T06:47:21;5.20;99.90
28823;DHT22;15961;54.678;9.110;2022-11-15T06:49:46;5.30;99.90
28823;DHT22;15961;54.678;9.110;2022-11-15T06:52:12;5.30;99.90
28823;DHT22;15961;54.678;9.110;2022-11-15T06:54:37;5.40;99.90
28823;DHT22;15961;54.678;9.110;2022-11-15T06:57:04;5.50;99.90
28823;DHT22;15961;54.678;9.110;2022-11-15T06:59:30;5.50;99.90
28823;DHT22;15961;54.678;9.110;2022-11-15T07:01:55;5.50;99.90
28823;DHT22;15961;54.678;9.110;2022-11-15T07:04:20;5.50;99.90
28823;DHT22;15961;54.678;9.110;2022-11-15T07:06:47;5.50;99.90
28823;DHT22;15961;54.678;9.110;2022-11-15T07:09:13;5.60;99.90
28823;DHT22;15961;54.678;9.110;2022-11-15T07:11:39;5.60;99.90
28823;DHT22;15961;54.678;9.110;2022-11-15T07:14:04;5.60;99.90
28823;DHT22;15961;54.678;9.110;2022-11-15T07:16:30;5.70;99.90
28823;DHT22;15961;54.678;9.110;2022-11-15T07:18:55;5.70;99.90
28823;DHT22;15961;54.678;9.110;2022-11-15T07:21:21;5.70;99.90
28823;DHT22;15961;54.678;9.110;2022-11-15T07:23:46;5.80;99.90
28823;DHT22;15961;54.678;9.110;2022-11-15T07:26:12;5.80;99.90
28823;DHT22;15961;54.678;9.110;2022-11-15T07:28:37;5.90;99.90
28823;DHT22;15961;54.678;9.110;2022-11-15T07:31:04;5.90;99.90
28823;DHT22;15961;54.678;9.110;2022-11-15T07:33:31;6.00;99.90
28823;DHT22;15961;54.678;9.110;2022-11-15T07:36:05;6.00;99.90
28823;DHT22;15961;54.678;9.110;2022-11-15T07:38:31;6.10;99.90
28823;DHT22;15961;54.678;9.110;2022-11-15T07:40:58;6.10;99.90
28823;DHT22;15961;54.678;9.110;2022-11-15T07:43:24;6.10;99.90
28823;DHT22;15961;54.678;9.110;2022-11-15T07:45:49;6.20;99.90
28823;DHT22;15961;54.678;9.110;2022-11-15T07:48:15;6.20;99.90
28823;DHT22;15961;54.678;9.110;2022-11-15T07:50:41;6.30;99.90
28823;DHT22;15961;54.678;9.110;2022-11-15T07:53:09;6.40;99.90
28823;DHT22;15961;54.678;9.110;2022-11-15T07:55:34;6.40;99.90
28823;DHT22;15961;54.678;9.110;2022-11-15T07:58:04;6.40;99.90
28823;DHT22;15961;54.678;9.110;2022-11-15T08:00:31;6.40;99.90
28823;DHT22;15961;54.678;9.110;2022-11-15T08:03:08;6.50;99.90
28823;DHT22;15961;54.678;9.110;2022-11-15T08:05:35;6.50;99.90
28823;DHT22;15961;54.678;9.110;2022-11-15T08:08:01;6.50;99.90
28823;DHT22;15961;54.678;9.110;2022-11-15T08:10:28;6.60;99.90
28823;DHT22;15961;54.678;9.110;2022-11-15T08:13:04;6.60;99.90
28823;DHT22;15961;54.678;9.110;2022-11-15T08:15:31;6.60;99.90
28823;DHT22;15961;54.678;9.110;2022-11-15T08:17:58;6.60;99.90
28823;DHT22;15961;54.678;9.110;2022-11-15T08:20:25;6.70;99.90
28823;DHT22;15961;54.678;9.110;2022-11-15T08:22:51;6.70;99.90
28823;DHT22;15961;54.678;9.110;2022-11-15T08:25:17;6.70;99.90
28823;DHT22;15961;54.678;9.110;2022-11-15T08:27:43;6.70;99.90
28823;DHT22;15961;54.678;9.110;2022-11-15T08:30:12;6.80;99.90
28823;DHT22;15961;54.678;9.110;2022-11-15T08:32:37;6.90;99.90
28823;DHT22;15961;54.678;9.110;2022-11-15T08:35:03;7.00;99.90
28823;DHT22;15961;54.678;9.110;2022-11-15T08:37:29;7.10;99.90
28823;DHT22;15961;54.678;9.110;2022-11-15T08:39:54;7.20;99.90
28823;DHT22;15961;54.678;9.110;2022-11-15T08:42:20;7.30;99.90
28823;DHT22;15961;54.678;9.110;2022-11-15T08:44:45;7.40;99.90
28823;DHT22;15961;54.678;9.110;2022-11-15T08:47:11;7.40;99.90
28823;DHT22;15961;54.678;9.110;2022-11-15T08:49:37;7.40;99.90
28823;DHT22;15961;54.678;9.110;2022-11-15T08:52:03;7.50;99.90
28823;DHT22;15961;54.678;9.110;2022-11-15T08:54:28;7.50;99.90
28823;DHT22;15961;54.678;9.110;2022-11-15T08:56:54;7.60;99.90
28823;DHT22;15961;54.678;9.110;2022-11-15T08:59:19;7.60;99.90
28823;DHT22;15961;54.678;9.110;2022-11-15T09:01:45;7.70;99.90
28823;DHT22;15961;54.678;9.110;2022-11-15T09:04:10;7.70;99.90
28823;DHT22;15961;54.678;9.110;2022-11-15T09:06:36;7.80;99.90
28823;DHT22;15961;54.678;9.110;2022-11-15T09:09:02;7.90;99.90
28823;DHT22;15961;54.678;9.110;2022-11-15T09:11:28;7.90;99.90
28823;DHT22;15961;54.678;9.110;2022-11-15T09:13:54;7.90;99.90
28823;DHT22;15961;54.678;9.110;2022-11-15T09:16:19;7.90;99.90
28823;DHT22;15961;54.678;9.110;2022-11-15T09:18:45;7.80;99.90
28823;DHT22;15961;54.678;9.110;2022-11-15T09:21:11;7.80;99.90
28823;DHT22;15961;54.678;9.110;2022-11-15T09:23:36;7.80;99.90
28823;DHT22;15961;54.678;9.110;2022-11-15T09:26:04;7.90;99.90
28823;DHT22;15961;54.678;9.110;2022-11-15T09:28:30;7.90;99.90
28823;DHT22;15961;54.678;9.110;2022-11-15T09:30:57;7.90;99.90
28823;DHT22;15961;54.678;9.110;2022-11-15T09:33:24;7.90;99.90
28823;DHT22;15961;54.678;9.110;2022-11-15T09:35:49;7.90;99.90
28823;DHT22;15961;54.678;9.110;2022-11-15T09:38:15;7.90;99.90
28823;DHT22;15961;54.678;9.110;2022-11-15T09:40:40;7.90;99.90
28823;DHT22;15961;54.678;9.110;2022-11-15T09:43:50;7.90;99.90
28823;DHT22;15961;54.678;9.110;2022-11-15T09:46:37;7.90;99.90
28823;DHT22;15961;54.678;9.110;2022-11-15T09:49:07;7.80;99.90
28823;DHT22;15961;54.678;9.110;2022-11-15T09:51:37;7.90;99.90
28823;DHT22;15961;54.678;9.110;2022-11-15T09:54:26;7.90;99.90
28823;DHT22;15961;54.678;9.110;2022-11-15T09:57:04;8.00;99.90
28823;DHT22;15961;54.678;9.110;2022-11-15T10:05:19;8.10;99.90
28823;DHT22;15961;54.678;9.110;2022-11-15T10:08:20;8.10;99.90
28823;DHT22;15961;54.678;9.110;2022-11-15T10:10:52;8.20;99.90
28823;DHT22;15961;54.678;9.110;2022-11-15T10:13:22;8.30;99.90
28823;DHT22;15961;54.678;9.110;2022-11-15T10:15:49;8.40;99.90
28823;DHT22;15961;54.678;9.110;2022-11-15T10:20:54;8.40;99.90
28823;DHT22;15961;54.678;9.110;2022-11-15T10:23:22;8.40;99.90
28823;DHT22;15961;54.678;9.110;2022-11-15T10:25:52;8.40;99.90
28823;DHT22;15961;54.678;9.110;2022-11-15T10:28:31;8.50;99.90
28823;DHT22;15961;54.678;9.110;2022-11-15T10:30:58;8.40;99.90
28823;DHT22;15961;54.678;9.110;2022-11-15T10:46:35;8.50;99.90
28823;DHT22;15961;54.678;9.110;2022-11-15T10:49:28;8.60;99.90
28823;DHT22;15961;54.678;9.110;2022-11-15T10:54:53;8.60;99.90
28823;DHT22;15961;54.678;9.110;2022-11-15T10:57:22;8.60;99.90
28823;DHT22;15961;54.678;9.110;2022-11-15T10:59:52;8.60;99.90
28823;DHT22;15961;54.678;9.110;2022-11-15T11:02:38;8.60;99.90
28823;DHT22;15961;54.678;9.110;2022-11-15T11:05:06;8.60;99.90
28823;DHT22;15961;54.678;9.110;2022-11-15T11:08:38;8.60;99.90
28823;DHT22;15961;54.678;9.110;2022-11-15T11:10:55;8.70;99.90
28823;DHT22;15961;54.678;9.110;2022-11-15T11:13:27;8.70;99.90
28823;DHT22;15961;54.678;9.110;2022-11-15T11:18:36;8.60;99.90
28823;DHT22;15961;54.678;9.110;2022-11-15T11:21:09;8.70;99.90
28823;DHT22;15961;54.678;9.110;2022-11-15T11:26:16;8.70;99.90
28823;DHT22;15961;54.678;9.110;2022-11-15T11:32:02;8.70;99.90
28823;DHT22;15961;54.678;9.110;2022-11-15T11:35:03;8.80;99.90
28823;DHT22;15961;54.678;9.110;2022-11-15T11:37:46;8.80;99.90
28823;DHT22;15961;54.678;9.110;2022-11-15T11:40:30;8.80;99.90
28823;DHT22;15961;54.678;9.110;2022-11-15T11:43:25;8.70;99.90
28823;DHT22;15961;54.678;9.110;2022-11-15T11:46:18;8.70;99.90
28823;DHT22;15961;54.678;9.110;2022-11-15T11:48:51;8.80;99.90
28823;DHT22;15961;54.678;9.110;2022-11-15T11:53:52;8.80;99.90
28823;DHT22;15961;54.678;9.110;2022-11-15T11:56:22;8.90;99.90
28823;DHT22;15961;54.678;9.110;2022-11-15T11:58:50;8.90;99.90
28823;DHT22;15961;54.678;9.110;2022-11-15T12:01:34;8.90;99.90
28823;DHT22;15961;54.678;9.110;2022-11-15T12:04:21;8.90;99.90
28823;DHT22;15961;54.678;9.110;2022-11-15T12:07:10;8.90;99.90
28823;DHT22;15961;54.678;9.110;2022-11-15T12:09:43;8.90;99.90
28823;DHT22;15961;54.678;9.110;2022-11-15T12:17:21;9.00;99.90
28823;DHT22;15961;54.678;9.110;2022-11-15T12:19:47;9.00;99.90
28823;DHT22;15961;54.678;9.110;2022-11-15T12:22:20;9.10;99.90
28823;DHT22;15961;54.678;9.110;2022-11-15T12:24:56;9.10;99.90
28823;DHT22;15961;54.678;9.110;2022-11-15T12:27:40;9.10;99.90
28823;DHT22;15961;54.678;9.110;2022-11-15T12:30:15;9.10;99.90
28823;DHT22;15961;54.678;9.110;2022-11-15T12:32:58;9.10;99.90
28823;DHT22;15961;54.678;9.110;2022-11-15T12:35:35;9.10;99.90
28823;DHT22;15961;54.678;9.110;2022-11-15T12:38:02;9.10;99.90
28823;DHT22;15961;54.678;9.110;2022-11-15T12:40:34;9.10;99.90
28823;DHT22;15961;54.678;9.110;2022-11-15T12:45:43;9.20;99.90
28823;DHT22;15961;54.678;9.110;2022-11-15T12:59:06;9.50;99.90
28823;DHT22;15961;54.678;9.110;2022-11-15T13:07:05;9.80;99.90
28823;DHT22;15961;54.678;9.110;2022-11-15T13:12:01;9.80;99.90
28823;DHT22;15961;54.678;9.110;2022-11-15T13:19:48;9.90;99.90
28823;DHT22;15961;54.678;9.110;2022-11-15T13:22:17;9.90;99.90
28823;DHT22;15961;54.678;9.110;2022-11-15T13:25:02;10.00;99.90
28823;DHT22;15961;54.678;9.110;2022-11-15T13:27:28;10.00;99.90
28823;DHT22;15961;54.678;9.110;2022-11-15T13:29:54;9.90;99.90
28823;DHT22;15961;54.678;9.110;2022-11-15T13:32:20;9.90;99.90
28823;DHT22;15961;54.678;9.110;2022-11-15T13:34:48;9.80;99.90
28823;DHT22;15961;54.678;9.110;2022-11-15T13:39:45;9.80;99.90
28823;DHT22;15961;54.678;9.110;2022-11-15T13:42:20;9.80;99.90
28823;DHT22;15961;54.678;9.110;2022-11-15T13:45:00;9.80;99.90
28823;DHT22;15961;54.678;9.110;2022-11-15T13:47:28;9.80;99.90
28823;DHT22;15961;54.678;9.110;2022-11-15T13:49:56;9.80;99.90
28823;DHT22;15961;54.678;9.110;2022-11-15T13:52:27;9.80;99.90
28823;DHT22;15961;54.678;9.110;2022-11-15T13:55:00;9.80;99.90
28823;DHT22;15961;54.678;9.110;2022-11-15T13:57:57;9.80;99.90
28823;DHT22;15961;54.678;9.110;2022-11-15T14:03:25;9.70;99.90
28823;DHT22;15961;54.678;9.110;2022-11-15T14:08:29;9.70;99.90
28823;DHT22;15961;54.678;9.110;2022-11-15T14:11:15;9.60;99.90
28823;DHT22;15961;54.678;9.110;2022-11-15T14:13:41;9.60;99.90
28823;DHT22;15961;54.678;9.110;2022-11-15T14:16:15;9.60;99.90
28823;DHT22;15961;54.678;9.110;2022-11-15T14:18:50;9.50;99.90
28823;DHT22;15961;54.678;9.110;2022-11-15T14:21:17;9.60;99.90
28823;DHT22;15961;54.678;9.110;2022-11-15T14:23:43;9.50;99.90
28823;DHT22;15961;54.678;9.110;2022-11-15T14:26:38;9.50;99.90
28823;DHT22;15961;54.678;9.110;2022-11-15T14:29:23;9.50;99.90
28823;DHT22;15961;54.678;9.110;2022-11-15T14:31:49;9.50;99.90
28823;DHT22;15961;54.678;9.110;2022-11-15T14:34:14;9.40;99.90
28823;DHT22;15961;54.678;9.110;2022-11-15T14:36:40;9.50;99.90
28823;DHT22;15961;54.678;9.110;2022-11-15T14:39:05;9.50;99.90
28823;DHT22;15961;54.678;9.110;2022-11-15T14:41:34;9.50;99.90
28823;DHT22;15961;54.678;9.110;2022-11-15T14:44:03;9.50;99.90
28823;DHT22;15961;54.678;9.110;2022-11-15T14:46:30;9.50;99.90
28823;DHT22;15961;54.678;9.110;2022-11-15T14:48:55;9.50;99.90
28823;DHT22;15961;54.678;9.110;2022-11-15T14:51:21;9.50;99.90
28823;DHT22;15961;54.678;9.110;2022-11-15T14:53:47;9.40;99.90
28823;DHT22;15961;54.678;9.110;2022-11-15T14:56:13;9.50;99.90
28823;DHT22;15961;54.678;9.110;2022-11-15T14:58:39;9.50;99.90
28823;DHT22;15961;54.678;9.110;2022-11-15T15:03:39;9.50;99.90
28823;DHT22;15961;54.678;9.110;2022-11-15T15:06:05;9.50;99.90
28823;DHT22;15961;54.678;9.110;2022-11-15T15:08:30;9.50;99.90
28823;DHT22;15961;54.678;9.110;2022-11-15T15:10:56;9.50;99.90
28823;DHT22;15961;54.678;9.110;2022-11-15T15:13:23;9.50;99.90
28823;DHT22;15961;54.678;9.110;2022-11-15T15:15:50;9.50;99.90
28823;DHT22;15961;54.678;9.110;2022-11-15T15:18:16;9.40;99.90
28823;DHT22;15961;54.678;9.110;2022-11-15T15:20:43;9.50;99.90
28823;DHT22;15961;54.678;9.110;2022-11-15T15:23:18;9.50;99.90
28823;DHT22;15961;54.678;9.110;2022-11-15T15:25:44;9.40;99.90
28823;DHT22;15961;54.678;9.110;2022-11-15T15:28:11;9.50;99.90
28823;DHT22;15961;54.678;9.110;2022-11-15T15:30:37;9.50;99.90
28823;DHT22;15961;54.678;9.110;2022-11-15T15:33:02;9.50;99.90
28823;DHT22;15961;54.678;9.110;2022-11-15T15:35:30;9.40;99.90
28823;DHT22;15961;54.678;9.110;2022-11-15T15:37:56;9.40;99.90
28823;DHT22;15961;54.678;9.110;2022-11-15T15:40:24;9.40;99.90
28823;DHT22;15961;54.678;9.110;2022-11-15T15:42:50;9.40;99.90
28823;DHT22;15961;54.678;9.110;2022-11-15T15:45:17;9.40;99.90
28823;DHT22;15961;54.678;9.110;2022-11-15T15:47:43;9.40;99.90
28823;DHT22;15961;54.678;9.110;2022-11-15T15:50:17;9.40;99.90
28823;DHT22;15961;54.678;9.110;2022-11-15T15:52:45;9.40;99.90
28823;DHT22;15961;54.678;9.110;2022-11-15T15:55:10;9.40;99.90
28823;DHT22;15961;54.678;9.110;2022-11-15T15:57:36;9.40;99.90
28823;DHT22;15961;54.678;9.110;2022-11-15T16:00:03;9.40;99.90
28823;DHT22;15961;54.678;9.110;2022-11-15T16:02:29;9.40;99.90
28823;DHT22;15961;54.678;9.110;2022-11-15T16:04:54;9.40;99.90
28823;DHT22;15961;54.678;9.110;2022-11-15T16:07:23;9.30;99.90
28823;DHT22;15961;54.678;9.110;2022-11-15T16:09:49;9.30;99.90
28823;DHT22;15961;54.678;9.110;2022-11-15T16:12:29;9.30;99.90
28823;DHT22;15961;54.678;9.110;2022-11-15T16:14:55;9.30;99.90
28823;DHT22;15961;54.678;9.110;2022-11-15T16:17:23;9.30;99.90
28823;DHT22;15961;54.678;9.110;2022-11-15T16:19:49;9.30;99.90
28823;DHT22;15961;54.678;9.110;2022-11-15T16:22:14;9.30;99.90
28823;DHT22;15961;54.678;9.110;2022-11-15T16:24:40;9.30;99.90
28823;DHT22;15961;54.678;9.110;2022-11-15T16:27:05;9.30;99.90
28823;DHT22;15961;54.678;9.110;2022-11-15T16:29:35;9.30;99.90
28823;DHT22;15961;54.678;9.110;2022-11-15T16:32:01;9.30;99.90
28823;DHT22;15961;54.678;9.110;2022-11-15T16:34:26;9.30;99.90
28823;DHT22;15961;54.678;9.110;2022-11-15T16:36:52;9.30;99.90
28823;DHT22;15961;54.678;9.110;2022-11-15T16:39:18;9.40;99.90
28823;DHT22;15961;54.678;9.110;2022-11-15T16:41:44;9.30;99.90
28823;DHT22;15961;54.678;9.110;2022-11-15T16:44:12;9.30;99.90
28823;DHT22;15961;54.678;9.110;2022-11-15T16:46:41;9.20;99.90
28823;DHT22;15961;54.678;9.110;2022-11-15T16:49:13;9.10;99.90
28823;DHT22;15961;54.678;9.110;2022-11-15T16:51:40;9.00;99.90
28823;DHT22;15961;54.678;9.110;2022-11-15T16:54:06;8.90;99.90
28823;DHT22;15961;54.678;9.110;2022-11-15T16:56:32;8.80;99.90
28823;DHT22;15961;54.678;9.110;2022-11-15T16:58:59;8.80;99.90
28823;DHT22;15961;54.678;9.110;2022-11-15T17:01:27;8.70;99.90
28823;DHT22;15961;54.678;9.110;2022-11-15T17:03:53;8.60;99.90
28823;DHT22;15961;54.678;9.110;2022-11-15T17:06:20;8.50;99.90
28823;DHT22;15961;54.678;9.110;2022-11-15T17:08:46;8.50;99.90
28823;DHT22;15961;54.678;9.110;2022-11-15T17:11:15;8.50;99.90
28823;DHT22;15961;54.678;9.110;2022-11-15T17:13:41;8.50;99.90
28823;DHT22;15961;54.678;9.110;2022-11-15T17:16:11;8.60;99.90
28823;DHT22;15961;54.678;9.110;2022-11-15T17:18:38;8.70;99.90
28823;DHT22;15961;54.678;9.110;2022-11-15T17:23:32;8.80;99.90
28823;DHT22;15961;54.678;9.110;2022-11-15T17:26:02;8.80;99.90
28823;DHT22;15961;54.678;9.110;2022-11-15T17:28:32;8.80;99.90
28823;DHT22;15961;54.678;9.110;2022-11-15T17:30:58;8.90;99.90
28823;DHT22;15961;54.678;9.110;2022-11-15T17:33:25;8.80;99.90
28823;DHT22;15961;54.678;9.110;2022-11-15T17:36:00;8.80;99.90
28823;DHT22;15961;54.678;9.110;2022-11-15T17:38:26;8.80;99.90
28823;DHT22;15961;54.678;9.110;2022-11-15T17:41:04;8.90;99.90
28823;DHT22;15961;54.678;9.110;2022-11-15T17:43:31;8.90;99.90
28823;DHT22;15961;54.678;9.110;2022-11-15T17:45:58;8.90;99.90